createdAt,value
2022-12-19T00:01:55.381Z,97286.72
2022-12-19T00:04:41.232Z,97284.09
2022-12-19T00:07:27.501Z,97280.63
2022-12-19T00:10:13.362Z,97295.41
2022-12-19T00:12:59.106Z,97294.16
2022-12-19T00:15:44.923Z,97288.66
2022-12-19T00:18:31.335Z,97293.19
2022-12-19T00:21:19.604Z,97300.38
2022-12-19T00:24:14.513Z,97293.81
2022-12-19T00:27:06.637Z,97295.03
2022-12-19T00:29:52.313Z,97300.78
2022-12-19T00:32:38.316Z,97290.94
2022-12-19T00:35:24.298Z,97302.22
2022-12-19T00:38:10.433Z,97306.97
2022-12-19T00:40:56.458Z,97297.53
2022-12-19T00:43:44.116Z,97305.13
2022-12-19T00:46:31.757Z,97299.56
2022-12-19T00:49:17.704Z,97309.38
2022-12-19T00:52:05.565Z,97308.38
2022-12-19T00:54:51.430Z,97308.16
2022-12-19T00:57:38.744Z,97303.25
2022-12-19T01:00:24.434Z,97314.94
2022-12-19T01:03:10.230Z,97305.91
2022-12-19T01:05:56.857Z,97306.09
2022-12-19T01:08:43.194Z,97303.44
2022-12-19T01:11:47.339Z,97302.41
2022-12-19T01:14:33.353Z,97314.72
2022-12-19T01:17:19.825Z,97314.09
2022-12-19T01:20:06.016Z,97312.03
2022-12-19T01:22:51.838Z,97298.72
2022-12-19T01:25:39.109Z,97313.06
2022-12-19T01:28:30.905Z,97308.19
2022-12-19T01:31:16.744Z,97313.09
2022-12-19T01:34:04.701Z,97313.50
2022-12-19T01:36:51.522Z,97303.44
2022-12-19T01:39:37.456Z,97309.19
2022-12-19T01:42:25.645Z,97304.50
2022-12-19T01:45:13.995Z,97312.28
2022-12-19T01:48:05.488Z,97304.50
2022-12-19T01:51:03.376Z,97300.81
2022-12-19T01:54:00.561Z,97295.47
2022-12-19T01:56:55.815Z,97293.84
2022-12-19T01:59:57.236Z,97297.13
2022-12-19T02:02:54.853Z,97293.41
2022-12-19T02:05:41.250Z,97291.34
2022-12-19T02:08:28.459Z,97297.91
2022-12-19T02:11:16.501Z,97294.63
2022-12-19T02:14:02.570Z,97295.25
2022-12-19T02:16:54.431Z,97288.06
2022-12-19T02:20:03.590Z,97289.72
2022-12-19T02:23:16.025Z,97283.59
2022-12-19T02:26:23.909Z,97298.72
2022-12-19T02:29:39.759Z,97299.97
2022-12-19T02:32:38.411Z,97303.25
2022-12-19T02:35:41.980Z,97286.84
2022-12-19T02:38:30.291Z,97293.00
2022-12-19T02:41:26.076Z,97286.03
2022-12-19T02:44:42.898Z,97295.47
2022-12-19T02:47:29.970Z,97301.00
2022-12-19T02:50:16.420Z,97289.72
2022-12-19T02:53:02.231Z,97298.34
2022-12-19T02:56:03.634Z,97294.66
2022-12-19T02:59:22.337Z,97304.06
2022-12-19T03:03:01.244Z,97305.31
2022-12-19T03:06:12.656Z,97292.38
2022-12-19T03:09:16.058Z,97297.91
2022-12-19T03:12:17.550Z,97295.88
2022-12-19T03:15:04.612Z,97290.53
2022-12-19T03:17:51.163Z,97291.56
2022-12-19T03:20:48.258Z,97296.25
2022-12-19T03:23:34.371Z,97289.69
2022-12-19T03:26:23.657Z,97292.97
2022-12-19T03:29:20.010Z,97297.09
2022-12-19T03:32:11.179Z,97297.91
2022-12-19T03:35:07.438Z,97292.13
2022-12-19T03:38:10.584Z,97295.84
2022-12-19T03:40:57.045Z,97297.47
2022-12-19T03:43:44.952Z,97301.19
2022-12-19T03:46:31.183Z,97301.19
2022-12-19T03:49:17.392Z,97295.84
2022-12-19T03:52:06.365Z,97305.47
2022-12-19T03:55:01.431Z,97306.53
2022-12-19T03:57:52.658Z,97303.66
2022-12-19T04:00:40.644Z,97318.78
2022-12-19T04:03:28.059Z,97317.78
2022-12-19T04:06:14.633Z,97322.06
2022-12-19T04:09:01.693Z,97322.06
2022-12-19T04:11:52.450Z,97310.59
2022-12-19T04:14:39.074Z,97310.00
2022-12-19T04:17:53.755Z,97311.41
2022-12-19T04:20:41.476Z,97311.63
2022-12-19T04:23:47.677Z,97314.28
2022-12-19T04:26:35.225Z,97326.59
2022-12-19T04:29:22.139Z,97324.09
2022-12-19T04:32:09.105Z,97328.63
2022-12-19T04:34:54.899Z,97327.41
2022-12-19T04:37:40.662Z,97327.41
2022-12-19T04:40:26.303Z,97331.69
2022-12-19T04:43:12.134Z,97331.69
2022-12-19T04:45:58.069Z,97316.31
2022-12-19T04:48:43.771Z,97323.69
2022-12-19T04:51:29.642Z,97325.13
2022-12-19T04:54:16.025Z,97322.50
2022-12-19T04:57:02.095Z,97326.19
2022-12-19T04:59:47.874Z,97326.19
2022-12-19T05:02:33.881Z,97327.03
2022-12-19T05:05:20.009Z,97325.38
2022-12-19T05:08:05.993Z,97329.91
2022-12-19T05:10:51.815Z,97334.41
2022-12-19T05:13:37.821Z,97330.53
2022-12-19T05:16:23.761Z,97322.34
2022-12-19T05:19:09.786Z,97320.66
2022-12-19T05:21:55.741Z,97334.81
2022-12-19T05:24:41.774Z,97336.84
2022-12-19T05:27:27.695Z,97331.13
2022-12-19T05:30:13.511Z,97335.44
2022-12-19T05:32:59.545Z,97329.50
2022-12-19T05:35:45.500Z,97323.34
2022-12-19T05:38:31.443Z,97324.56
2022-12-19T05:41:19.211Z,97326.22
2022-12-19T05:44:05.266Z,97328.25
2022-12-19T05:46:50.987Z,97332.75
2022-12-19T05:49:36.827Z,97327.63
2022-12-19T05:52:23.139Z,97337.25
2022-12-19T05:55:09.955Z,97342.59
2022-12-19T05:57:55.868Z,97347.50
2022-12-19T06:00:41.560Z,97347.50
2022-12-19T06:03:28.210Z,97345.25
2022-12-19T06:06:17.192Z,97350.78
2022-12-19T06:09:03.055Z,97359.38
2022-12-19T06:11:48.783Z,97353.25
2022-12-19T06:14:34.565Z,97362.66
2022-12-19T06:17:20.477Z,97348.72
2022-12-19T06:20:07.118Z,97361.84
2022-12-19T06:22:53.227Z,97354.06
2022-12-19T06:25:38.948Z,97360.22
2022-12-19T06:28:25.732Z,97350.78
2022-12-19T06:31:12.316Z,97354.47
2022-12-19T06:33:58.206Z,97361.88
2022-12-19T06:36:44.055Z,97343.22
2022-12-19T06:39:30.434Z,97361.84
2022-12-19T06:42:25.601Z,97354.88
2022-12-19T06:45:11.632Z,97361.06
2022-12-19T06:47:57.664Z,97360.63
2022-12-19T06:50:45.664Z,97363.91
2022-12-19T06:53:31.494Z,97369.88
2022-12-19T06:56:18.047Z,97370.28
2022-12-19T06:59:05.162Z,97381.78
2022-12-19T07:02:00.520Z,97376.44
2022-12-19T07:05:02.592Z,97382.38
2022-12-19T07:07:48.633Z,97381.56
2022-12-19T07:10:34.615Z,97376.22
2022-12-19T07:13:20.777Z,97385.06
2022-12-19T07:16:07.271Z,97396.72
2022-12-19T07:18:53.118Z,97399.59
2022-12-19T07:21:39.418Z,97405.75
2022-12-19T07:24:25.979Z,97398.38
2022-12-19T07:27:11.729Z,97412.72
2022-12-19T07:29:57.655Z,97400.00
2022-12-19T07:32:43.600Z,97395.09
2022-12-19T07:35:29.730Z,97395.91
2022-12-19T07:38:15.511Z,97392.19
2022-12-19T07:41:02.162Z,97395.88
2022-12-19T07:43:47.751Z,97401.25
2022-12-19T07:46:33.497Z,97397.94
2022-12-19T07:49:22.652Z,97399.19
2022-12-19T07:52:08.879Z,97409.25
2022-12-19T07:54:54.715Z,97408.63
2022-12-19T07:57:40.799Z,97410.25
2022-12-19T08:00:26.585Z,97407.78
2022-12-19T08:03:12.842Z,97410.03
2022-12-19T08:06:06.589Z,97406.16
2022-12-19T08:08:52.392Z,97402.06
2022-12-19T08:11:38.276Z,97403.06
2022-12-19T08:14:25.139Z,97414.16
2022-12-19T08:17:20.300Z,97400.78
2022-12-19T08:20:07.967Z,97413.50
2022-12-19T08:22:54.006Z,97410.63
2022-12-19T08:25:39.941Z,97409.81
2022-12-19T08:28:26.338Z,97407.75
2022-12-19T08:31:15.333Z,97409.81
2022-12-19T08:34:01.367Z,97408.59
2022-12-19T08:36:47.253Z,97404.91
2022-12-19T08:39:33.279Z,97403.69
2022-12-19T08:42:19.145Z,97409.00
2022-12-19T08:45:05.904Z,97421.75
2022-12-19T08:47:51.950Z,97423.38
2022-12-19T08:50:37.600Z,97432.81
2022-12-19T08:53:26.667Z,97434.25
2022-12-19T08:56:16.770Z,97430.97
2022-12-19T08:59:02.611Z,97426.88
2022-12-19T09:01:48.737Z,97429.97
2022-12-19T09:06:01.224Z,97429.53
2022-12-19T09:07:41.079Z,97427.47
2022-12-19T09:10:27.399Z,97415.59
2022-12-19T09:13:13.646Z,97422.97
2022-12-19T09:16:05.799Z,97420.72
2022-12-19T09:18:54.673Z,97419.91
2022-12-19T09:21:40.613Z,97408.81
2022-12-19T09:24:26.507Z,97417.63
2022-12-19T09:27:12.283Z,97406.13
2022-12-19T09:29:59.833Z,97413.09
2022-12-19T09:32:45.666Z,97400.19
2022-12-19T09:35:31.483Z,97397.72
2022-12-19T09:38:17.244Z,97392.38
2022-12-19T09:41:31.627Z,97391.75
2022-12-19T09:44:32.764Z,97389.72
2022-12-19T09:47:21.872Z,97390.09
2022-12-19T09:50:26.327Z,97389.31
2022-12-19T09:53:31.890Z,97385.59
2022-12-19T09:56:18.247Z,97382.50
2022-12-19T09:59:49.875Z,97388.06
2022-12-19T10:02:56.696Z,97392.16
2022-12-19T10:07:15.825Z,97374.13
2022-12-19T10:10:16.581Z,97364.06
2022-12-19T10:12:51.176Z,97344.53
2022-12-19T10:15:59.055Z,97344.50
2022-12-19T10:18:57.353Z,97344.50
2022-12-19T10:25:25.258Z,97337.91
2022-12-19T10:28:26.418Z,97319.44
2022-12-19T10:31:22.243Z,97323.13
2022-12-19T10:34:21.161Z,97314.06
2022-12-19T10:37:49.642Z,97313.47
2022-12-19T10:41:44.001Z,97306.28
2022-12-19T10:44:30.966Z,97314.91
2022-12-19T10:47:17.638Z,97320.25
2022-12-19T10:50:09.283Z,97316.97
2022-12-19T10:53:15.032Z,97315.28
2022-12-19T10:56:12.648Z,97315.06
2022-12-19T10:58:59.253Z,97301.44
2022-12-19T11:02:00.351Z,97309.19
2022-12-19T11:05:20.015Z,97313.09
2022-12-19T11:08:08.750Z,97295.00
2022-12-19T11:15:44.153Z,97290.09
2022-12-19T11:18:47.201Z,97284.13
2022-12-19T11:24:30.022Z,97272.84
2022-12-19T11:29:32.821Z,97274.88
2022-12-19T11:29:54.274Z,97264.03
2022-12-19T11:30:25.964Z,97272.44
2022-12-19T11:34:16.099Z,97282.34
2022-12-19T11:37:17.523Z,97291.44
2022-12-19T11:40:25.706Z,97293.13
2022-12-19T11:43:47.170Z,97281.22
2022-12-19T11:46:34.533Z,97289.44
2022-12-19T11:49:31.282Z,97293.16
2022-12-19T11:53:13.010Z,97303.63
2022-12-19T11:56:03.956Z,97296.44
2022-12-19T11:58:55.148Z,97294.38
2022-12-19T12:01:59.085Z,97282.06
2022-12-19T12:04:45.226Z,97286.72
2022-12-19T12:08:44.438Z,97272.56
2022-12-19T12:16:13.578Z,97282.47
2022-12-19T12:23:50.593Z,97277.94
2022-12-19T12:31:04.067Z,97272.66
2022-12-19T12:31:26.662Z,97266.72
2022-12-19T12:31:29.545Z,97262.22
2022-12-19T12:31:58.821Z,97254.00
2022-12-19T12:35:35.102Z,97243.94
2022-12-19T12:35:46.563Z,97246.41
2022-12-19T12:41:15.026Z,97243.53
2022-12-19T12:44:09.256Z,97232.03
2022-12-19T12:47:05.306Z,97228.31
2022-12-19T12:49:59.176Z,97219.88
2022-12-19T12:52:51.096Z,97228.50
2022-12-19T12:55:41.841Z,97207.81
2022-12-19T12:58:50.123Z,97213.91
2022-12-19T13:01:40.654Z,97222.31
2022-12-19T13:04:35.302Z,97220.81
2022-12-19T13:07:42.213Z,97218.78
2022-12-19T13:10:32.160Z,97223.25
2022-12-19T13:13:24.155Z,97228.16
2022-12-19T13:16:45.993Z,97226.50
2022-12-19T13:19:37.603Z,97236.41
2022-12-19T13:22:29.693Z,97236.81
2022-12-19T13:25:38.924Z,97236.44
2022-12-19T13:28:25.008Z,97241.75
2022-12-19T13:31:20.399Z,97245.47
2022-12-19T13:34:17.629Z,97243.59
2022-12-19T13:39:52.340Z,97249.44
2022-12-19T13:40:51.184Z,97249.69
2022-12-19T13:43:49.536Z,97233.59
2022-12-19T13:46:40.323Z,97238.41
2022-12-19T13:49:34.203Z,97231.88
2022-12-19T13:52:23.008Z,97220.03
2022-12-19T13:55:14.360Z,97223.03
2022-12-19T13:58:04.403Z,97222.84
2022-12-19T14:00:53.809Z,97223.69
2022-12-19T14:03:43.178Z,97222.94
2022-12-19T14:06:31.236Z,97221.41
2022-12-19T14:11:28.011Z,97217.41
2022-12-19T14:13:39.627Z,97212.59
2022-12-19T14:16:05.304Z,97206.59
2022-12-19T14:18:51.607Z,97210.41
2022-12-19T14:22:09.747Z,97204.38
2022-12-19T14:25:33.275Z,97215.84
2022-12-19T14:28:18.428Z,97207.94
2022-12-19T14:31:12.667Z,97186.38
2022-12-19T14:34:27.178Z,97207.03
2022-12-19T14:37:54.293Z,97217.41
2022-12-19T14:41:07.199Z,97217.94
2022-12-19T14:43:59.551Z,97216.78
2022-12-19T14:54:21.705Z,97230.53
2022-12-19T14:54:23.041Z,97217.22
2022-12-19T14:54:24.477Z,97223.53
2022-12-19T14:57:00.938Z,97227.31
2022-12-19T14:59:48.662Z,97226.56
2022-12-19T15:02:35.319Z,97224.38
2022-12-19T15:05:22.048Z,97216.78
2022-12-19T15:08:11.087Z,97217.66
2022-12-19T15:11:44.636Z,97213.75
2022-12-19T15:14:52.916Z,97203.56
2022-12-19T15:17:47.798Z,97206.28
2022-12-19T15:20:33.589Z,97216.94
2022-12-19T15:23:22.714Z,97229.06
2022-12-19T15:26:16.139Z,97233.78
2022-12-19T15:29:03.103Z,97229.28
2022-12-19T15:31:49.148Z,97235.00
2022-12-19T15:34:40.512Z,97232.59
2022-12-19T15:37:32.522Z,97233.41
2022-12-19T15:40:18.946Z,97237.53
2022-12-19T15:43:05.512Z,97248.84
2022-12-19T15:45:56.005Z,97245.75
2022-12-19T15:48:46.560Z,97244.53
2022-12-19T15:51:32.589Z,97248.63
2022-12-19T15:57:37.933Z,97247.97
2022-12-19T16:00:26.929Z,97247.38
2022-12-19T16:03:23.593Z,97235.69
2022-12-19T16:06:15.174Z,97242.03
2022-12-19T16:09:01.474Z,97235.88
2022-12-19T16:11:48.349Z,97234.44
2022-12-19T16:14:34.293Z,97239.16
2022-12-19T16:17:22.337Z,97237.16
2022-12-19T16:20:21.861Z,97245.34
2022-12-19T16:23:08.452Z,97244.34
2022-12-19T16:25:54.267Z,97243.34
2022-12-19T16:28:40.455Z,97237.22
2022-12-19T16:31:28.068Z,97240.69
2022-12-19T16:34:19.672Z,97246.66
2022-12-19T16:37:05.467Z,97251.81
2022-12-19T16:39:51.583Z,97248.34
2022-12-19T16:42:37.649Z,97251.19
2022-12-19T16:45:25.467Z,97247.13
2022-12-19T16:48:19.037Z,97249.78
2022-12-19T16:51:05.007Z,97248.56
2022-12-19T16:53:52.893Z,97247.53
2022-12-19T16:56:54.919Z,97241.78
2022-12-19T16:59:41.061Z,97251.63
2022-12-19T17:02:45.964Z,97246.50
2022-12-19T17:05:32.853Z,97245.09
2022-12-19T17:08:19.360Z,97244.47
2022-12-19T17:11:08.028Z,97233.59
2022-12-19T17:14:02.489Z,97253.28
2022-12-19T17:16:49.240Z,97243.88
2022-12-19T17:19:39.385Z,97236.09
2022-12-19T17:22:25.453Z,97241.81
2022-12-19T17:25:24.469Z,97247.53
2022-12-19T17:28:11.423Z,97247.53
2022-12-19T17:31:00.172Z,97244.06
2022-12-19T17:33:46.619Z,97244.25
2022-12-19T17:36:37.044Z,97243.66
2022-12-19T17:39:26.025Z,97246.34
2022-12-19T17:42:22.296Z,97252.69
2022-12-19T17:45:09.198Z,97240.16
2022-12-19T17:48:02.348Z,97255.75
2022-12-19T17:50:48.941Z,97256.34
2022-12-19T17:53:35.098Z,97259.44
2022-12-19T17:56:22.197Z,97257.78
2022-12-19T17:59:07.942Z,97266.78
2022-12-19T18:01:54.688Z,97270.88
2022-12-19T18:04:40.843Z,97277.44
2022-12-19T18:07:26.617Z,97272.50
2022-12-19T18:10:38.775Z,97281.09
2022-12-19T18:13:26.913Z,97270.88
2022-12-19T18:16:15.162Z,97279.88
2022-12-19T18:19:01.540Z,97283.53
2022-12-19T18:21:48.140Z,97279.03
2022-12-19T18:24:34.206Z,97279.81
2022-12-19T18:27:20.190Z,97275.72
2022-12-19T18:30:06.733Z,97276.94
2022-12-19T18:32:58.665Z,97280.41
2022-12-19T18:35:50.104Z,97274.84
2022-12-19T18:38:36.166Z,97282.63
2022-12-19T18:41:22.861Z,97268.72
2022-12-19T18:44:09.043Z,97277.13
2022-12-19T18:46:55.292Z,97276.50
2022-12-19T18:49:41.388Z,97272.19
2022-12-19T18:52:28.391Z,97276.88
2022-12-19T18:55:19.445Z,97272.75
2022-12-19T18:58:05.665Z,97268.44
2022-12-19T19:00:57.287Z,97268.59
2022-12-19T19:03:53.723Z,97273.50
2022-12-19T19:06:46.421Z,97268.97
2022-12-19T19:09:36.075Z,97274.25
2022-12-19T19:12:42.646Z,97266.47
2022-12-19T19:15:31.329Z,97266.84
2022-12-19T19:18:23.413Z,97266.84
2022-12-19T19:21:11.490Z,97261.13
2022-12-19T19:24:06.377Z,97268.03
2022-12-19T19:26:52.233Z,97258.81
2022-12-19T19:29:38.938Z,97260.22
2022-12-19T19:32:25.642Z,97260.63
2022-12-19T19:35:11.756Z,97259.78
2022-12-19T19:38:00.551Z,97253.56
2022-12-19T19:40:46.526Z,97248.69
2022-12-19T19:43:35.586Z,97257.25
2022-12-19T19:46:21.867Z,97251.94
2022-12-19T19:49:08.011Z,97254.22
2022-12-19T19:51:58.652Z,97242.97
2022-12-19T19:54:48.507Z,97246.25
2022-12-19T19:57:35.093Z,97258.94
2022-12-19T20:00:21.907Z,97263.25
2022-12-19T20:03:10.240Z,97258.13
2022-12-19T20:06:01.616Z,97259.97
2022-12-19T20:08:47.862Z,97267.09
2022-12-19T20:11:33.916Z,97261.78
2022-12-19T20:14:19.902Z,97264.25
2022-12-19T20:17:05.875Z,97263.44
2022-12-19T20:19:51.880Z,97253.81
2022-12-19T20:22:37.744Z,97254.84
2022-12-19T20:25:23.911Z,97256.47
2022-12-19T20:28:10.371Z,97256.03
2022-12-19T20:30:56.516Z,97260.16
2022-12-19T20:33:42.571Z,97260.16
2022-12-19T20:36:28.846Z,97254.84
2022-12-19T20:39:15.381Z,97256.47
2022-12-19T20:42:01.410Z,97246.69
2022-12-19T20:44:47.602Z,97251.16
2022-12-19T20:47:33.617Z,97258.50
2022-12-19T20:50:19.585Z,97251.38
2022-12-19T20:53:05.436Z,97253.19
2022-12-19T20:55:58.091Z,97255.84
2022-12-19T20:58:47.487Z,97243.75
2022-12-19T21:01:33.702Z,97266.28
2022-12-19T21:04:19.996Z,97259.13
2022-12-19T21:07:06.212Z,97278.56
2022-12-19T21:09:54.093Z,97271.59
2022-12-19T21:12:47.184Z,97270.78
2022-12-19T21:15:34.631Z,97271.16
2022-12-19T21:18:23.127Z,97273.19
2022-12-19T21:21:15.083Z,97275.22
2022-12-19T21:24:05.700Z,97273.16
2022-12-19T21:26:57.838Z,97265.75
2022-12-19T21:29:45.462Z,97264.50
2022-12-19T21:32:33.519Z,97271.66
2022-12-19T21:35:20.911Z,97270.84
2022-12-19T21:38:06.997Z,97262.88
2022-12-19T21:40:52.818Z,97259.41
2022-12-19T21:43:38.820Z,97252.63
2022-12-19T21:46:28.330Z,97262.88
2022-12-19T21:49:14.311Z,97262.88
2022-12-19T21:52:00.657Z,97259.22
2022-12-19T21:54:46.692Z,97259.22
2022-12-19T21:57:32.449Z,97251.19
2022-12-19T22:00:18.619Z,97249.31
2022-12-19T22:03:19.855Z,97259.09
2022-12-19T22:06:19.968Z,97267.06
2022-12-19T22:09:14.875Z,97263.16
2022-12-19T22:12:01.089Z,97255.41
2022-12-19T22:14:47.414Z,97250.91
2022-12-19T22:17:33.335Z,97257.41
2022-12-19T22:20:19.178Z,97252.03
2022-12-19T22:23:11.315Z,97240.72
2022-12-19T22:26:05.142Z,97253.47
2022-12-19T22:28:53.277Z,97243.13
2022-12-19T22:31:39.972Z,97246.78
2022-12-19T22:34:25.893Z,97244.50
2022-12-19T22:37:11.619Z,97250.19
2022-12-19T22:40:00.189Z,97245.91
2022-12-19T22:42:46.238Z,97247.56
2022-12-19T22:45:31.894Z,97238.97
2022-12-19T22:48:17.612Z,97238.97
2022-12-19T22:51:04.039Z,97235.31
2022-12-19T22:53:50.047Z,97237.31
2022-12-19T22:56:36.256Z,97237.69
2022-12-19T22:59:22.082Z,97230.94
2022-12-19T23:02:08.872Z,97225.84
2022-12-19T23:04:54.948Z,97226.66
2022-12-19T23:07:40.658Z,97225.84
2022-12-19T23:10:26.560Z,97232.78
2022-12-19T23:13:12.593Z,97227.47
2022-12-19T23:15:58.476Z,97222.19
2022-12-19T23:18:44.626Z,97230.75
2022-12-19T23:21:30.702Z,97225.44
2022-12-19T23:24:16.730Z,97222.19
2022-12-19T23:27:02.925Z,97212.59
2022-12-19T23:29:49.725Z,97223.59
2022-12-19T23:32:35.907Z,97219.75
2022-12-19T23:35:21.929Z,97215.28
2022-12-19T23:38:07.767Z,97221.41
2022-12-19T23:41:02.048Z,97220.59
2022-12-19T23:43:48.665Z,97212.44
2022-12-19T23:46:34.585Z,97212.81
2022-12-19T23:49:20.167Z,97205.88
2022-12-19T23:52:06.160Z,97209.16
2022-12-19T23:54:52.335Z,97212.44
2022-12-19T23:57:38.346Z,97221.41
